createdAt,value
2023-01-25T00:00:45.399Z,99527.19
2023-01-25T00:03:47.924Z,99526.59
2023-01-25T00:06:51.080Z,99527.56
2023-01-25T00:09:53.613Z,99515.59
2023-01-25T00:12:57.073Z,99517.34
2023-01-25T00:16:04.410Z,99524.13
2023-01-25T00:19:08.046Z,99522.75
2023-01-25T00:22:10.600Z,99518.22
2023-01-25T00:25:13.150Z,99528.56
2023-01-25T00:28:15.669Z,99527.88
2023-01-25T00:31:35.438Z,99531.13
2023-01-25T00:34:45.851Z,99522.63
2023-01-25T00:37:50.130Z,99527.56
2023-01-25T00:40:53.761Z,99536.72
2023-01-25T00:43:56.464Z,99528.19
2023-01-25T00:46:59.006Z,99526.41
2023-01-25T00:50:03.021Z,99524.50
2023-01-25T00:53:05.692Z,99539.41
2023-01-25T00:56:08.255Z,99539.44
2023-01-25T00:59:11.784Z,99538.78
2023-01-25T01:02:14.603Z,99526.78
2023-01-25T01:05:17.253Z,99525.28
2023-01-25T01:08:19.808Z,99514.25
2023-01-25T01:11:22.338Z,99498.81
2023-01-25T01:14:24.905Z,99511.25
2023-01-25T01:17:27.445Z,99507.31
2023-01-25T01:20:30.043Z,99507.59
2023-01-25T01:23:32.874Z,99505.84
2023-01-25T01:26:35.475Z,99501.31
2023-01-25T01:29:37.974Z,99502.72
2023-01-25T01:32:40.951Z,99499.38
2023-01-25T01:35:46.975Z,99500.09
2023-01-25T01:38:49.773Z,99495.81
2023-01-25T01:41:52.304Z,99497.25
2023-01-25T01:44:56.110Z,99496.31
2023-01-25T01:48:00.082Z,99508.31
2023-01-25T01:51:12.003Z,99509.28
2023-01-25T01:54:17.050Z,99503.13
2023-01-25T01:57:26.309Z,99492.69
2023-01-25T02:00:33.294Z,99495.94
2023-01-25T02:03:37.542Z,99489.31
2023-01-25T02:06:55.554Z,99505.50
2023-01-25T02:09:59.234Z,99499.75
2023-01-25T02:13:01.858Z,99509.44
2023-01-25T02:16:05.131Z,99505.22
2023-01-25T02:19:08.400Z,99509.44
2023-01-25T02:22:13.583Z,99501.66
2023-01-25T02:25:17.931Z,99500.03
2023-01-25T02:28:35.568Z,99499.19
2023-01-25T02:31:38.165Z,99497.72
2023-01-25T02:34:40.751Z,99503.09
2023-01-25T02:37:44.716Z,99491.91
2023-01-25T02:40:58.035Z,99487.69
2023-01-25T02:44:04.875Z,99486.28
2023-01-25T02:47:07.392Z,99474.41
2023-01-25T02:50:10.729Z,99472.03
2023-01-25T02:53:13.283Z,99472.44
2023-01-25T02:56:16.511Z,99469.03
2023-01-25T02:59:19.273Z,99470.88
2023-01-25T03:02:26.622Z,99464.25
2023-01-25T03:05:29.128Z,99462.59
2023-01-25T03:08:31.713Z,99461.84
2023-01-25T03:11:34.505Z,99465.97
2023-01-25T03:14:37.725Z,99458.22
2023-01-25T03:17:40.364Z,99447.47
2023-01-25T03:20:42.998Z,99448.09
2023-01-25T03:23:46.721Z,99438.53
2023-01-25T03:27:12.035Z,99437.59
2023-01-25T03:30:19.489Z,99441.44
2023-01-25T03:33:22.787Z,99439.66
2023-01-25T03:36:26.001Z,99432.63
2023-01-25T03:39:29.201Z,99434.19
2023-01-25T03:42:31.908Z,99420.47
2023-01-25T03:45:34.607Z,99421.09
2023-01-25T03:48:37.468Z,99425.63
2023-01-25T03:51:40.734Z,99417.69
2023-01-25T03:54:43.481Z,99424.66
2023-01-25T03:57:49.207Z,99425.63
2023-01-25T04:00:55.596Z,99419.81
2023-01-25T04:03:58.277Z,99427.53
2023-01-25T04:07:01.041Z,99419.91
2023-01-25T04:10:06.102Z,99417.41
2023-01-25T04:13:10.265Z,99415.53
2023-01-25T04:16:12.906Z,99415.63
2023-01-25T04:19:33.763Z,99419.84
2023-01-25T04:22:38.244Z,99420.81
2023-01-25T04:25:42.219Z,99419.94
2023-01-25T04:28:48.632Z,99428.53
2023-01-25T04:31:51.993Z,99422.56
2023-01-25T04:34:54.733Z,99421.75
2023-01-25T04:38:00.132Z,99421.84
2023-01-25T04:41:10.251Z,99411.66
2023-01-25T04:44:13.057Z,99415.84
2023-01-25T04:47:17.216Z,99414.13
2023-01-25T04:50:19.784Z,99415.94
2023-01-25T04:53:22.555Z,99417.59
2023-01-25T04:56:26.050Z,99417.69
2023-01-25T04:59:31.362Z,99410.97
2023-01-25T05:02:34.020Z,99422.22
2023-01-25T05:05:36.694Z,99422.97
2023-01-25T05:08:44.160Z,99436.72
2023-01-25T05:11:46.872Z,99434.38
2023-01-25T05:15:00.931Z,99440.72
2023-01-25T05:18:04.315Z,99443.31
2023-01-25T05:21:31.839Z,99441.75
2023-01-25T05:24:35.739Z,99430.34
2023-01-25T05:27:42.165Z,99426.16
2023-01-25T05:31:07.912Z,99429.97
2023-01-25T05:34:11.256Z,99426.78
2023-01-25T05:37:15.676Z,99431.13
2023-01-25T05:40:20.362Z,99439.94
2023-01-25T05:43:24.538Z,99440.78
2023-01-25T05:46:28.744Z,99438.16
2023-01-25T05:49:32.692Z,99437.25
2023-01-25T05:52:35.948Z,99438.16
2023-01-25T05:55:38.727Z,99443.31
2023-01-25T05:58:45.341Z,99442.56
2023-01-25T06:01:48.273Z,99446.91
2023-01-25T06:04:52.769Z,99444.59
2023-01-25T06:07:55.586Z,99450.72
2023-01-25T06:11:07.340Z,99440.56
2023-01-25T06:14:10.148Z,99435.53
2023-01-25T06:17:14.132Z,99441.66
2023-01-25T06:20:35.386Z,99440.06
2023-01-25T06:23:41.369Z,99439.91
2023-01-25T06:26:44.620Z,99447.50
2023-01-25T06:29:47.254Z,99452.41
2023-01-25T06:32:50.893Z,99450.72
2023-01-25T06:35:53.515Z,99445.28
2023-01-25T06:38:56.176Z,99443.50
2023-01-25T06:41:58.754Z,99441.00
2023-01-25T06:45:01.731Z,99446.22
2023-01-25T06:48:04.981Z,99449.72
2023-01-25T06:51:09.757Z,99453.81
2023-01-25T06:54:12.410Z,99443.56
2023-01-25T06:57:14.980Z,99436.50
2023-01-25T07:00:18.220Z,99447.38
2023-01-25T07:03:21.300Z,99444.47
2023-01-25T07:06:25.274Z,99441.31
2023-01-25T07:09:28.322Z,99440.31
2023-01-25T07:12:31.846Z,99430.41
2023-01-25T07:15:35.102Z,99424.31
2023-01-25T07:18:38.353Z,99431.97
2023-01-25T07:21:41.078Z,99430.41
2023-01-25T07:24:50.178Z,99427.91
2023-01-25T07:27:54.435Z,99425.88
2023-01-25T07:30:57.416Z,99431.88
2023-01-25T07:34:00.706Z,99419.81
2023-01-25T07:37:03.343Z,99426.63
2023-01-25T07:40:07.070Z,99415.97
2023-01-25T07:43:09.890Z,99418.31
2023-01-25T07:46:14.286Z,99415.22
2023-01-25T07:49:17.134Z,99421.13
2023-01-25T07:52:19.806Z,99434.00
2023-01-25T07:55:22.962Z,99431.78
2023-01-25T07:58:26.093Z,99435.69
2023-01-25T08:01:31.332Z,99433.91
2023-01-25T08:04:34.142Z,99434.53
2023-01-25T08:07:37.468Z,99430.00
2023-01-25T08:10:40.202Z,99425.59
2023-01-25T08:13:50.093Z,99425.41
2023-01-25T08:16:53.638Z,99420.16
2023-01-25T08:19:56.451Z,99416.59
2023-01-25T08:22:59.084Z,99415.38
2023-01-25T08:26:03.488Z,99418.06
2023-01-25T08:29:06.872Z,99415.09
2023-01-25T08:32:10.055Z,99409.28
2023-01-25T08:35:12.790Z,99414.81
2023-01-25T08:38:15.850Z,99420.22
2023-01-25T08:41:21.996Z,99416.44
2023-01-25T08:44:26.257Z,99417.66
2023-01-25T08:47:28.875Z,99410.78
2023-01-25T08:50:32.411Z,99404.72
2023-01-25T08:53:35.682Z,99409.84
2023-01-25T08:56:42.740Z,99420.88
2023-01-25T08:59:45.451Z,99414.16
2023-01-25T09:02:48.757Z,99412.63
2023-01-25T09:05:51.684Z,99422.75
2023-01-25T09:08:54.738Z,99424.72
2023-01-25T09:11:57.420Z,99421.28
2023-01-25T09:15:00.235Z,99417.53
2023-01-25T09:18:03.258Z,99418.72
2023-01-25T09:21:12.994Z,99411.69
2023-01-25T09:24:16.028Z,99408.88
2023-01-25T09:27:19.667Z,99414.38
2023-01-25T09:30:33.499Z,99421.13
2023-01-25T09:33:41.558Z,99419.56
2023-01-25T09:36:44.715Z,99412.16
2023-01-25T09:39:47.213Z,99400.34
2023-01-25T09:43:14.610Z,99395.81
2023-01-25T09:46:42.650Z,99391.44
2023-01-25T09:50:05.745Z,99384.59
2023-01-25T09:53:15.499Z,99381.00
2023-01-25T09:56:28.227Z,99371.31
2023-01-25T09:59:31.403Z,99379.41
2023-01-25T10:02:55.042Z,99384.69
2023-01-25T10:05:59.517Z,99389.94
2023-01-25T10:09:20.070Z,99373.41
2023-01-25T10:12:24.990Z,99365.50
2023-01-25T10:15:33.480Z,99367.28
2023-01-25T10:19:11.307Z,99358.50
2023-01-25T10:22:22.160Z,99364.84
2023-01-25T10:25:30.303Z,99344.44
2023-01-25T10:28:48.211Z,99342.28
2023-01-25T10:31:54.056Z,99342.22
2023-01-25T10:35:02.279Z,99337.59
2023-01-25T10:38:18.093Z,99330.50
2023-01-25T10:41:33.252Z,99316.47
2023-01-25T10:44:38.041Z,99301.16
2023-01-25T10:47:43.524Z,99304.84
2023-01-25T10:50:49.138Z,99303.28
2023-01-25T10:54:02.774Z,99298.50
2023-01-25T10:57:09.892Z,99294.03
2023-01-25T11:00:23.775Z,99281.03
2023-01-25T11:03:35.662Z,99269.44
2023-01-25T11:06:40.960Z,99270.13
2023-01-25T11:09:44.231Z,99271.41
2023-01-25T11:12:47.100Z,99266.44
2023-01-25T11:15:57.244Z,99257.63
2023-01-25T11:19:01.319Z,99253.09
2023-01-25T11:22:19.174Z,99243.91
2023-01-25T11:25:24.967Z,99250.97
2023-01-25T11:28:27.811Z,99237.88
2023-01-25T11:31:30.511Z,99238.81
2023-01-25T11:34:33.337Z,99238.13
2023-01-25T11:37:54.584Z,99239.88
2023-01-25T11:41:24.854Z,99230.44
2023-01-25T11:44:50.294Z,99219.50
2023-01-25T11:48:11.133Z,99211.94
2023-01-25T11:51:22.653Z,99205.78
2023-01-25T11:54:34.488Z,99203.50
2023-01-25T11:57:58.852Z,99199.75
2023-01-25T12:01:10.346Z,99195.22
2023-01-25T12:04:36.545Z,99188.31
2023-01-25T12:08:03.947Z,99179.72
2023-01-25T12:11:07.142Z,99168.56
2023-01-25T12:14:27.708Z,99164.00
2023-01-25T12:17:42.020Z,99156.59
2023-01-25T12:20:53.495Z,99147.97
2023-01-25T12:24:14.810Z,99158.22
2023-01-25T12:27:18.076Z,99152.47
2023-01-25T12:30:27.597Z,99147.84
2023-01-25T12:33:36.748Z,99143.34
2023-01-25T12:36:50.188Z,99146.66
2023-01-25T12:39:59.021Z,99147.44
2023-01-25T12:43:03.012Z,99141.31
2023-01-25T12:46:29.684Z,99144.00
2023-01-25T12:49:45.842Z,99135.59
2023-01-25T12:53:18.876Z,99138.72
2023-01-25T12:56:27.392Z,99148.53
2023-01-25T12:59:49.251Z,99140.91
2023-01-25T13:03:31.453Z,99141.81
2023-01-25T13:06:48.119Z,99131.25
2023-01-25T13:10:00.204Z,99118.84
2023-01-25T13:13:04.385Z,99109.53
2023-01-25T13:16:30.704Z,99102.19
2023-01-25T13:19:33.757Z,99091.09
2023-01-25T13:22:46.134Z,99091.09
2023-01-25T13:25:49.090Z,99104.59
2023-01-25T13:28:56.585Z,99094.97
2023-01-25T13:32:00.505Z,99095.88
2023-01-25T13:35:03.901Z,99090.56
2023-01-25T13:38:32.952Z,99095.56
2023-01-25T13:41:35.756Z,99095.75
2023-01-25T13:44:44.171Z,99090.56
2023-01-25T13:48:07.121Z,99090.72
2023-01-25T13:51:14.544Z,99087.56
2023-01-25T13:54:18.233Z,99094.16
2023-01-25T13:57:27.017Z,99098.25
2023-01-25T14:00:30.562Z,99096.84
2023-01-25T14:03:47.893Z,99095.59
2023-01-25T14:06:59.950Z,99093.72
2023-01-25T14:10:08.708Z,99086.19
2023-01-25T14:13:14.935Z,99087.75
2023-01-25T14:16:18.493Z,99085.94
2023-01-25T14:19:22.529Z,99070.72
2023-01-25T14:22:31.048Z,99064.72
2023-01-25T14:25:34.102Z,99057.59
2023-01-25T14:28:37.282Z,99066.94
2023-01-25T14:31:40.417Z,99072.09
2023-01-25T14:34:43.361Z,99070.63
2023-01-25T14:37:46.814Z,99067.19
2023-01-25T14:40:50.938Z,99064.59
2023-01-25T14:44:05.052Z,99069.78
2023-01-25T14:47:30.220Z,99063.81
2023-01-25T14:50:40.029Z,99071.56
2023-01-25T14:53:47.107Z,99069.31
2023-01-25T14:56:52.721Z,99060.97
2023-01-25T14:59:56.506Z,99058.38
2023-01-25T15:03:01.009Z,99059.16
2023-01-25T15:06:04.926Z,99058.50
2023-01-25T15:09:32.106Z,99060.44
2023-01-25T15:12:34.971Z,99053.00
2023-01-25T15:15:59.817Z,99051.38
2023-01-25T15:19:03.326Z,99052.16
2023-01-25T15:22:08.776Z,99052.28
2023-01-25T15:25:15.688Z,99061.81
2023-01-25T15:28:34.641Z,99048.97
2023-01-25T15:31:38.428Z,99048.19
2023-01-25T15:34:41.410Z,99047.41
2023-01-25T15:37:44.735Z,99045.53
2023-01-25T15:40:48.051Z,99043.63
2023-01-25T15:43:58.424Z,99043.25
2023-01-25T15:47:07.189Z,99043.97
2023-01-25T15:50:18.469Z,99044.72
2023-01-25T15:53:21.495Z,99043.59
2023-01-25T15:56:30.404Z,99047.78
2023-01-25T15:59:33.480Z,99043.97
2023-01-25T16:02:36.403Z,99044.38
2023-01-25T16:05:39.404Z,99041.47
2023-01-25T16:08:42.592Z,99049.09
2023-01-25T16:11:46.395Z,99043.31
2023-01-25T16:14:49.488Z,99042.09
2023-01-25T16:17:52.217Z,99028.94
2023-01-25T16:20:54.961Z,99024.34
2023-01-25T16:23:57.890Z,99026.66
2023-01-25T16:27:01.298Z,99022.63
2023-01-25T16:30:05.123Z,99035.31
2023-01-25T16:33:08.528Z,99039.06
2023-01-25T16:36:16.728Z,99032.53
2023-01-25T16:39:22.662Z,99037.84
2023-01-25T16:42:25.376Z,99033.03
2023-01-25T16:45:29.223Z,99028.03
2023-01-25T16:48:32.429Z,99028.03
2023-01-25T16:51:37.135Z,99027.28
2023-01-25T16:54:40.108Z,99032.69
2023-01-25T16:57:45.449Z,99021.66
2023-01-25T17:00:48.465Z,99018.22
2023-01-25T17:03:52.986Z,99024.44
2023-01-25T17:06:59.367Z,99013.13
2023-01-25T17:10:04.442Z,99013.59
2023-01-25T17:13:09.369Z,99017.91
2023-01-25T17:16:12.146Z,99016.97
2023-01-25T17:19:16.704Z,99003.03
2023-01-25T17:22:19.710Z,99006.38
2023-01-25T17:25:23.625Z,99008.06
2023-01-25T17:28:27.667Z,99004.97
2023-01-25T17:31:34.995Z,99003.81
2023-01-25T17:34:38.160Z,99007.22
2023-01-25T17:37:41.639Z,98995.03
2023-01-25T17:40:44.869Z,98997.19
2023-01-25T17:43:55.310Z,98994.41
2023-01-25T17:46:59.570Z,98994.31
2023-01-25T17:50:02.766Z,99000.09
2023-01-25T17:53:07.046Z,98996.38
2023-01-25T17:56:11.959Z,98994.16
2023-01-25T17:59:14.911Z,99000.16
2023-01-25T18:02:18.559Z,98989.94
2023-01-25T18:05:21.933Z,98993.38
2023-01-25T18:08:25.541Z,98991.75
2023-01-25T18:11:31.311Z,98983.03
2023-01-25T18:14:35.620Z,98980.91
2023-01-25T18:17:39.006Z,98972.81
2023-01-25T18:20:42.416Z,98960.81
2023-01-25T18:23:49.037Z,98963.66
2023-01-25T18:26:52.661Z,98966.13
2023-01-25T18:30:01.741Z,98968.22
2023-01-25T18:33:05.937Z,98961.91
2023-01-25T18:36:10.139Z,98963.63
2023-01-25T18:39:13.284Z,98967.09
2023-01-25T18:42:17.153Z,98971.22
2023-01-25T18:45:24.512Z,98970.09
2023-01-25T18:48:31.164Z,98959.94
2023-01-25T18:51:38.924Z,98962.09
2023-01-25T18:54:49.887Z,98964.00
2023-01-25T18:57:53.478Z,98960.16
2023-01-25T19:01:26.345Z,98960.03
2023-01-25T19:04:31.087Z,98956.28
2023-01-25T19:07:34.837Z,98958.22
2023-01-25T19:10:38.272Z,98951.31
2023-01-25T19:13:43.164Z,98953.19
2023-01-25T19:16:46.680Z,98947.78
2023-01-25T19:19:49.519Z,98934.53
2023-01-25T19:22:54.125Z,98934.53
2023-01-25T19:25:56.941Z,98927.72
2023-01-25T19:28:59.850Z,98924.00
2023-01-25T19:32:02.791Z,98912.09
2023-01-25T19:35:08.605Z,98910.16
2023-01-25T19:38:11.845Z,98915.13
2023-01-25T19:41:17.184Z,98904.47
2023-01-25T19:44:20.833Z,98907.63
2023-01-25T19:47:23.729Z,98908.19
2023-01-25T19:50:27.068Z,98898.81
2023-01-25T19:53:30.522Z,98890.31
2023-01-25T19:56:44.128Z,98889.75
2023-01-25T19:59:48.213Z,98890.16
2023-01-25T20:02:52.389Z,98884.84
2023-01-25T20:06:00.530Z,98888.13
2023-01-25T20:09:04.135Z,98885.50
2023-01-25T20:12:09.375Z,98883.44
2023-01-25T20:15:14.398Z,98867.38
2023-01-25T20:18:17.993Z,98870.19
2023-01-25T20:21:22.686Z,98859.59
2023-01-25T20:24:26.759Z,98860.84
2023-01-25T20:27:29.771Z,98858.09
2023-01-25T20:30:34.512Z,98849.50
2023-01-25T20:33:37.556Z,98855.69
2023-01-25T20:36:41.693Z,98852.09
2023-01-25T20:39:44.398Z,98847.13
2023-01-25T20:42:48.029Z,98846.56
2023-01-25T20:45:55.279Z,98845.59
2023-01-25T20:48:58.742Z,98844.59
2023-01-25T20:52:02.011Z,98844.81
2023-01-25T20:55:05.659Z,98836.38
2023-01-25T20:58:11.944Z,98839.72
2023-01-25T21:01:17.389Z,98834.63
2023-01-25T21:04:20.255Z,98829.19
2023-01-25T21:07:23.207Z,98829.84
2023-01-25T21:10:26.198Z,98821.50
2023-01-25T21:13:29.730Z,98823.63
2023-01-25T21:16:32.491Z,98816.66
2023-01-25T21:19:36.068Z,98815.88
2023-01-25T21:22:39.194Z,98807.72
2023-01-25T21:25:42.606Z,98813.34
2023-01-25T21:28:46.338Z,98813.22
2023-01-25T21:31:51.297Z,98806.78
2023-01-25T21:34:54.046Z,98808.31
2023-01-25T21:37:56.929Z,98803.09
2023-01-25T21:41:03.988Z,98805.31
2023-01-25T21:44:25.296Z,98803.56
2023-01-25T21:47:31.474Z,98804.81
2023-01-25T21:50:53.131Z,98797.28
2023-01-25T21:53:55.763Z,98800.28
2023-01-25T21:56:59.999Z,98810.31
2023-01-25T22:00:04.765Z,98807.75
2023-01-25T22:03:07.432Z,98805.81
2023-01-25T22:06:10.118Z,98803.75
2023-01-25T22:09:14.447Z,98807.72
2023-01-25T22:12:17.476Z,98798.53
2023-01-25T22:15:20.771Z,98799.63
2023-01-25T22:18:23.631Z,98796.13
2023-01-25T22:21:32.349Z,98803.56
2023-01-25T22:24:35.089Z,98786.94
2023-01-25T22:27:47.198Z,98775.84
2023-01-25T22:30:50.633Z,98789.31
2023-01-25T22:33:54.341Z,98775.22
2023-01-25T22:36:57.431Z,98766.00
2023-01-25T22:40:00.239Z,98760.69
2023-01-25T22:43:03.477Z,98760.13
2023-01-25T22:46:07.777Z,98754.28
2023-01-25T22:49:10.525Z,98748.31
2023-01-25T22:52:13.268Z,98742.44
2023-01-25T22:55:16.000Z,98740.47
2023-01-25T22:58:19.003Z,98736.06
2023-01-25T23:01:26.993Z,98727.25
2023-01-25T23:04:30.771Z,98716.75
2023-01-25T23:07:35.145Z,98714.69
2023-01-25T23:10:37.873Z,98715.97
2023-01-25T23:13:41.303Z,98719.34
2023-01-25T23:16:45.141Z,98714.94
2023-01-25T23:19:47.796Z,98707.13
2023-01-25T23:22:51.649Z,98708.97
2023-01-25T23:25:54.376Z,98704.94
2023-01-25T23:28:58.264Z,98706.41
2023-01-25T23:32:00.933Z,98703.66
2023-01-25T23:35:03.920Z,98695.28
2023-01-25T23:38:15.610Z,98698.69
2023-01-25T23:41:19.977Z,98690.75
2023-01-25T23:44:22.595Z,98698.53
2023-01-25T23:47:25.210Z,98696.28
2023-01-25T23:50:27.987Z,98683.22
2023-01-25T23:53:33.941Z,98684.13
2023-01-25T23:56:36.620Z,98681.41
2023-01-25T23:59:39.320Z,98682.19
